• Join FlightAware (Why Join?)
  • Login
  • US Flag 
Trick or treat! (Boo!!) 
03:05AM EDT


 

Airport Tracker/Info


-or-


 

Live Flight TrackerFlight Track Log ✈ SWA2975 ✈ 26-Jun-2013 ✈ KSLC - KMDW

Flight Track Log - Related Links

Times and Time Zones

All times are in EDT time to prevent confusion due to time zone crossing. See the SWA2975 flight status page for this flight to view local times or setup timezone preferences in your user account.

Time Position Orientation Groundspeed Altitude Reporting Facility
EDT Latitude Longitude Course Direction KTS MPH feet Rate Location/Type
11:00PM 40.7870 -111.9770 191° South 16 18  Level FlightAware
11:01PM 40.7860 -111.9770 180° South 17 20 840 Level FlightAware
11:01PM 40.7840 -111.9760 159° South 20 23 840 Level FlightAware
11:02PM 40.7810 -111.9760 180° South 23 26 960 Level FlightAware
11:02PM 40.7790 -111.9760 180° South 22 25 1,020 Level FlightAware
11:02PM 40.7770 -111.9760 180° South 18 21 1,140 Level FlightAware
11:03PM 40.7740 -111.9700 123° Southeast 16 18 1,200 Level FlightAware
11:04PM 40.7730 -111.9660 108° East 17 20 1,800 Level FlightAware
11:05PM 40.7720 -111.9610 105° East 30 35 2,580 Level FlightAware
11:06PM 40.8050 -111.9620 359° North 175 201 4,800 3,180 Climbing FlightAware
11:06PM 40.8330 -111.9660 354° North 210 242 5,600 1,620 Climbing FlightAware
11:07PM 40.8540 -111.9690 354° North 233 268 6,200 1,800 Climbing FlightAware
11:07PM 40.8900 -111.9740 354° North 258 297 7,200 2,160 Climbing FlightAware
11:08PM 40.9220 -111.9790 353° North 270 311 8,300 2,520 Climbing FlightAware
11:08PM 40.9600 -111.9840 354° North 276 318 9,600 2,220 Climbing FlightAware
11:09PM 41.0150 -111.9970 350° North 303 349 11,100 2,400 Climbing FlightAware
11:10PM 41.0880 -111.9980 359° North 324 373 13,500 2,760 Climbing FlightAware
11:10PM 41.1070 -111.9790 37° Northeast 335 386 14,200 2,580 Climbing FlightAware
11:10PM 41.1180 -111.9520 62° Northeast 346 398 14,800 2,220 Climbing FlightAware
11:11PM 41.1070 -111.8670 100° East 355 409 16,400 2,580 Climbing FlightAware
11:12PM 41.0770 -111.7750 113° Southeast 357 411 18,500 2,640 Climbing FlightAware
11:12PM 41.0550 -111.7010 111° Southeast 361 415 20,000 2,220 Climbing FlightAware
11:13PM 41.0280 -111.6030 110° East 377 434 21,600 2,040 Climbing FlightAware
11:14PM 41.0020 -111.5060 110° East 387 445 23,100 1,920 Climbing FlightAware
11:15PM 40.9760 -111.4180 111° Southeast 397 457 24,300 1,620 Climbing FlightAware
11:15PM 40.9600 -111.3470 107° East 410 472 25,000 1,260 Climbing FlightAware
11:16PM 40.9660 -111.2540 85° East 431 496 25,700 1,140 Climbing FlightAware
11:16PM 40.9770 -111.1260 83° East 453 521 26,600 660 Climbing FlightAware
11:17PM 40.9880 -110.9900 84° East 459 528 26,900 180 Climbing FlightAware
11:18PM 40.9950 -110.9040 84° East 459 528 26,900  Level FlightAware
11:19PM 41.0040 -110.7900 84° East 459 528 26,900  Level FlightAware
11:19PM 41.0100 -110.7050 85° East 459 528 26,900  Level FlightAware
11:20PM 41.0190 -110.5900 84° East 459 528 26,900 3,720 Level FlightAware
11:21PM 41.0389 -110.3800 84° East 495 570 32,000 4,260 Climbing Denver Center
11:22PM 41.0544 -110.1769 84° East 497 572 33,700 1,440 Climbing Denver Center
11:23PM 41.0678 -110.0072 84° East 486 559 35,000 600 Climbing Denver Center
11:24PM 41.0811 -109.8358 84° East 491 565 35,000  Level Denver Center
11:25PM 41.0958 -109.6364 84° East 489 563 35,000  Level Denver Center
11:26PM 41.1075 -109.4669 85° East 488 562 35,000  Level Denver Center
11:27PM 41.1225 -109.2686 84° East 488 562 35,000  Level Denver Center
11:28PM 41.1358 -109.0700 85° East 490 564 35,000  Level Denver Center
11:29PM 41.1475 -108.9000 85° East 489 563 35,000  Level Denver Center
11:30PM 41.1608 -108.7028 85° East 486 559 35,000  Level Denver Center
11:31PM 41.1717 -108.5333 85° East 484 557 35,000 540 Level Denver Center
11:32PM 41.1844 -108.3347 85° East 487 560 36,200 960 Climbing Denver Center
11:33PM 41.1950 -108.1689 85° East 477 549 37,000 360 Climbing Denver Center
11:34PM 41.2053 -107.9992 85° East 481 554 37,000 300 Level Denver Center
11:40PM 41.2600 -107.0060 85° East 469 540 39,000 300 Climbing FlightAware
11:40PM 41.2660 -106.8980 86° East 470 541 39,000  Level FlightAware
11:41PM 41.2730 -106.7720 86° East 470 541 39,000  Level FlightAware
11:42PM 41.2770 -106.6840 87° East 470 541 39,000  Level FlightAware
11:43PM 41.2840 -106.5280 87° East 469 540 39,000  Level FlightAware
11:43PM 41.2890 -106.4030 87° East 468 539 39,000  Level FlightAware
11:44PM 41.2940 -106.3010 86° East 469 540 39,000  Level FlightAware
11:45PM 41.3010 -106.1530 86° East 472 543 39,000  Level FlightAware
11:45PM 41.3060 -106.0370 87° East 472 543 39,000  Level FlightAware
11:46PM 41.3110 -105.9100 87° East 472 543 39,000  Level FlightAware
11:47PM 41.3160 -105.7990 87° East 472 543 39,000  Level FlightAware
11:48PM 41.3210 -105.6680 87° East 471 542 39,000  Level FlightAware
11:48PM 41.3250 -105.5520 87° East 458 527 39,000  Level FlightAware
11:49PM 41.3300 -105.4320 87° East 457 526 39,000  Level FlightAware
11:50PM 41.3340 -105.3090 87° East 457 526 39,000  Level FlightAware
11:50PM 41.3380 -105.2040 87° East 457 526 39,000  Level FlightAware
11:51PM 41.3420 -105.0800 87° East 459 528 39,000  Level FlightAware
11:52PM 41.3460 -104.9560 87° East 458 527 39,000  Level FlightAware
11:52PM 41.3500 -104.8430 87° East 452 520 39,000  Level FlightAware
11:53PM 41.3540 -104.7280 87° East 451 519 39,000  Level FlightAware
11:54PM 41.3570 -104.6160 88° East 451 519 39,000  Level FlightAware
11:54PM 41.3610 -104.4960 87° East 454 522 39,000  Level FlightAware
11:55PM 41.3640 -104.3710 88° East 456 525 39,000  Level FlightAware
11:56PM 41.3680 -104.2530 87° East 457 526 39,000  Level FlightAware
11:57PM 41.3710 -104.1370 88° East 458 527 39,000  Level FlightAware
11:57PM 41.3740 -104.0230 88° East 461 531 39,000  Level FlightAware
11:58PM 41.3760 -103.9040 89° East 465 535 39,000  Level FlightAware
11:59PM 41.3790 -103.7800 88° East 467 537 39,000  Level FlightAware
11:59PM 41.3820 -103.6570 88° East 469 540 39,000  Level FlightAware
12:00AM 41.3850 -103.5350 88° East 470 541 39,000  Level FlightAware
12:01AM 41.3870 -103.4250 89° East 470 541 39,000  Level FlightAware
12:01AM 41.3890 -103.3130 89° East 470 541 39,000  Level FlightAware
12:02AM 41.3910 -103.1800 89° East 470 541 39,000  Level FlightAware
12:03AM 41.3940 -103.0130 89° East 469 540 39,000  Level FlightAware
12:04AM 41.3970 -102.9140 88° East 469 540 39,000  Level FlightAware
12:05AM 41.4000 -102.7960 88° East 469 540 39,000  Level FlightAware
12:05AM 41.3990 -102.6520 90° East 468 539 39,000  Level FlightAware
12:06AM 41.4010 -102.5340 89° East 468 539 39,000  Level FlightAware
12:07AM 41.4020 -102.4170 89° East 468 539 39,000  Level FlightAware
12:07AM 41.4040 -102.2910 89° East 467 537 39,000  Level FlightAware
12:08AM 41.4050 -102.1820 89° East 467 537 39,000  Level FlightAware
12:09AM 41.4060 -102.0910 89° East 467 537 39,000  Level FlightAware
12:09AM 41.4070 -101.9250 89° East 470 541 39,000  Level FlightAware
12:10AM 41.4080 -101.8030 89° East 472 543 39,000  Level FlightAware
12:11AM 41.4080 -101.6550 90° East 470 541 39,000  Level FlightAware
12:12AM 41.4090 -101.5380 89° East 467 537 39,000  Level FlightAware
12:12AM 41.4090 -101.4280 90° East 464 534 39,000  Level FlightAware
12:13AM 41.4090 -101.2950 90° East 462 532 39,000  Level FlightAware
12:14AM 41.4090 -101.1820 90° East 462 532 39,000  Level FlightAware
12:18AM 41.4090 -100.5790 90° East 462 532 39,000  Level FlightAware
12:18AM 41.4090 -100.5210 90° East 462 532 39,000  Level FlightAware
12:19AM 41.4090 -100.3970 90° East 462 532 39,000  Level FlightAware
12:20AM 41.4090 -100.3100 90° East 462 532 39,000  Level FlightAware
12:21AM 41.4090 -100.1940 90° East 462 532 39,000  Level FlightAware
12:21AM 41.4090 -100.1040 90° East 462 532 39,000  Level FlightAware
12:22AM 41.4090 -100.0140 90° East 462 532 39,000  Level FlightAware
12:23AM 41.4090 -99.8980 90° East 462 532 39,000  Level FlightAware
12:23AM 41.4090 -99.8110 90° East 462 532 39,000  Level FlightAware
12:24AM 41.3972 -99.4392 90° East 469 540 39,000  Level Minneapolis Center
12:25AM 41.3947 -99.2653 91° East 468 539 39,000  Level Minneapolis Center
12:26AM 41.3928 -99.0703 91° East 466 536 39,000  Level Minneapolis Center
12:27AM 41.3894 -98.9181 92° East 464 534 39,000  Level Denver Center
12:32AM 41.3870 -98.0050 92° East 469 540 39,000  Level FlightAware
12:33AM 41.3900 -97.9020 88° East 469 540 39,000  Level FlightAware
12:34AM 41.3940 -97.7750 88° East 470 541 39,000  Level FlightAware
12:34AM 41.3970 -97.6460 88° East 472 543 39,000  Level FlightAware
12:35AM 41.4000 -97.5320 88° East 474 545 39,000  Level FlightAware
12:36AM 41.4030 -97.4270 88° East 475 547 39,000  Level FlightAware
12:37AM 41.4080 -97.2460 88° East 477 549 39,000  Level FlightAware
12:37AM 41.4100 -97.1240 89° East 477 549 39,000  Level FlightAware
12:38AM 41.4130 -97.0000 88° East 478 550 39,000  Level FlightAware
12:39AM 41.4160 -96.8710 88° East 478 550 39,000  Level FlightAware
12:39AM 41.4180 -96.7500 89° East 478 550 39,000  Level FlightAware
12:40AM 41.4210 -96.5960 88° East 477 549 39,000  Level FlightAware
12:41AM 41.4230 -96.4750 89° East 477 549 39,000  Level FlightAware
12:42AM 41.4260 -96.3380 88° East 476 548 39,000  Level FlightAware
12:42AM 41.4270 -96.2220 89° East 475 547 39,000  Level FlightAware
12:43AM 41.4290 -96.0950 89° East 475 547 39,000  Level FlightAware
12:44AM 41.4310 -95.9750 89° East 474 545 39,000  Level FlightAware
12:45AM 41.4330 -95.8490 89° East 475 547 39,000  Level FlightAware
12:45AM 41.4340 -95.7340 89° East 476 548 39,000  Level FlightAware
12:46AM 41.4350 -95.6000 89° East 476 548 39,000  Level FlightAware
12:47AM 41.4360 -95.4730 89° East 476 548 39,000  Level FlightAware
12:47AM 41.4370 -95.3700 89° East 476 548 39,000  Level FlightAware
12:48AM 41.4390 -95.2110 89° East 476 548 39,000  Level FlightAware
12:49AM 41.4390 -95.0760 90° East 475 547 39,000  Level FlightAware
12:50AM 41.4400 -94.9530 89° East 476 548 39,000  Level FlightAware
12:51AM 41.4400 -94.7900 90° East 475 547 39,000  Level FlightAware
12:51AM 41.4410 -94.6830 89° East 475 547 39,000  Level FlightAware
12:52AM 41.4430 -94.5910 88° East 475 547 39,000  Level FlightAware
12:53AM 41.4410 -94.3790 91° East 474 545 39,000  Level FlightAware
12:54AM 41.4400 -94.2480 91° East 474 545 39,000  Level FlightAware
12:54AM 41.4400 -94.1310 90° East 475 547 39,000  Level FlightAware
12:55AM 41.4390 -93.9740 90° East 477 549 39,000  Level FlightAware
12:56AM 41.4390 -93.8590 90° East 478 550 39,000  Level FlightAware
12:57AM 41.4380 -93.7360 91° East 479 551 39,000  Level FlightAware
12:58AM 41.4420 -93.5550 88° East 477 549 39,000  Level FlightAware
12:58AM 41.4470 -93.4420 87° East 480 552 39,000  Level FlightAware
12:59AM 41.4410 -93.3080 93° East 488 562 39,000  Level FlightAware
12:59AM 41.4380 -93.2470 94° East 489 563 39,000  Level FlightAware
01:02AM 41.4100 -92.8070 95° East 481 554 39,000  Level FlightAware
01:03AM 41.4020 -92.6770 95° East 480 552 39,000  Level FlightAware
01:03AM 41.3940 -92.5610 95° East 481 554 39,000  Level FlightAware
01:04AM 41.3860 -92.4310 95° East 482 555 39,000  Level FlightAware
01:05AM 41.3780 -92.3230 96° East 481 554 39,000  Level FlightAware
01:05AM 41.3690 -92.1870 95° East 479 551 39,000  Level FlightAware
01:06AM 41.3600 -92.0520 95° East 481 554 39,000  Level FlightAware
01:07AM 41.3510 -91.9310 96° East 483 556 39,000  Level FlightAware
01:08AM 41.3430 -91.8100 95° East 483 556 39,000 -180 Level FlightAware
01:08AM 41.3340 -91.6910 96° East 484 557 38,800 -660 Descending FlightAware
01:09AM 41.3240 -91.5650 96° East 490 564 38,100 -960 Descending FlightAware
01:10AM 41.3150 -91.4410 95° East 490 564 37,500 -900 Descending FlightAware
01:10AM 41.3060 -91.3240 96° East 487 560 36,900 -1,800 Descending FlightAware
01:11AM 41.2960 -91.1850 95° East 486 559 35,000 -2,760 Descending FlightAware
01:12AM 41.2850 -91.0550 96° East 493 567 32,800 -3,180 Descending FlightAware
01:12AM 41.2750 -90.9310 96° East 498 573 30,600 -3,240 Descending FlightAware
01:13AM 41.2650 -90.8010 96° East 511 588 28,400 -3,180 Descending FlightAware
01:14AM 41.2550 -90.6770 96° East 517 595 26,300 -3,000 Descending FlightAware
01:15AM 41.2430 -90.5370 96° East 512 589 24,200 -1,680 Descending FlightAware
01:15AM 41.2340 -90.4160 96° East 499 574 24,000 -180 Descending FlightAware
01:16AM 41.2400 -90.3010 86° East 486 559 24,000  Level FlightAware
01:17AM 41.2620 -90.1620 78° East 476 548 24,000  Level FlightAware
01:17AM 41.2810 -90.0490 77° East 473 544 24,000 -360 Level FlightAware
01:18AM 41.3010 -89.9220 78° East 472 543 23,500 -900 Descending FlightAware
01:19AM 41.3190 -89.8120 78° East 469 540 22,800 -1,020 Descending FlightAware
01:19AM 41.3360 -89.7040 78° East 464 534 22,200 -1,440 Descending FlightAware
01:20AM 41.3550 -89.5820 78° East 455 524 20,900 -2,280 Descending FlightAware
01:21AM 41.3730 -89.4650 78° East 444 511 18,900 -3,120 Descending FlightAware
01:22AM 41.3930 -89.3400 78° East 444 511 16,300 -3,120 Descending FlightAware
01:22AM 41.4090 -89.2350 78° East 431 496 14,500 -2,520 Descending FlightAware
01:23AM 41.4260 -89.1240 78° East 412 474 12,800 -2,160 Descending FlightAware
01:24AM 41.4410 -89.0260 78° East 390 449 11,500 -1,500 Descending FlightAware
01:24AM 41.4550 -88.9360 78° East 359 413 10,800 -900 Descending FlightAware
01:25AM 41.4660 -88.8650 78° East 330 380 10,400 -540 Descending FlightAware
01:26AM 41.4800 -88.7830 77° East 303 349 10,100 -180 Descending FlightAware
01:26AM 41.4970 -88.7010 75° East 343 395 10,200  Climbing FlightAware
01:27AM 41.5140 -88.6130 76° East 347 399 10,100 -120 Descending FlightAware
01:28AM 41.5310 -88.5310 74° East 338 389 10,100  Level FlightAware
01:28AM 41.5460 -88.4570 75° East 303 349 10,100 -480 Level FlightAware
01:29AM 41.5520 -88.4280 75° East 302 348 9,700 -1,380 Descending FlightAware
01:29AM 41.5620 -88.3770 75° East 296 341 9,100 -1,260 Descending FlightAware
01:29AM 41.5690 -88.3420 75° East 293 337 8,700 -1,260 Descending FlightAware
01:32AM 41.6140 -88.1150 75° East 275 316 5,700 -1,380 Descending FlightAware
01:32AM 41.6220 -88.0750 75° East 274 315 5,200 -1,440 Descending FlightAware
01:33AM 41.6370 -88.0310 65° Northeast 268 308 4,600 -1,020 Descending FlightAware
01:33AM 41.6520 -87.9930 62° Northeast 258 297 4,300 -540 Descending FlightAware
01:33AM 41.6690 -87.9530 60° Northeast 237 273 4,100 -300 Descending FlightAware
01:34AM 41.6750 -87.9370 63° Northeast 226 260 4,100 -480 Level FlightAware
01:34AM 41.6890 -87.9030 61° Northeast 204 235 3,800 -780 Descending FlightAware
01:35AM 41.7010 -87.8750 60° Northeast 196 226 3,400 -1,200 Descending FlightAware
01:35AM 41.7130 -87.8440 63° Northeast 179 206 2,700 -1,440 Descending FlightAware
01:35AM 41.7190 -87.8350 48° Northeast 173 199 2,400 -1,140 Descending FlightAware
01:36AM 41.7340 -87.8170 42° Northeast 151 174 2,000 -900 Descending FlightAware
01:36AM 41.7480 -87.7990 44° Northeast 134 154 1,600 -780 Descending FlightAware
01:37AM 41.7600 -87.7830 45° Northeast 137 158 1,300 -780 Descending FlightAware
01:37AM 41.7660 -87.7760 41° Northeast 137 158 1,100 -360 Descending FlightAware
01:38AM 41.7830 -87.7550 43° Northeast 139 160 1,000 -180 Descending FlightAware